Airfield :







YOU CAN JOIN US ON...

 
LOGIN :

Register | Disclaimer

   EN    FR    IT 

 









Legend :    VFR   Marginal VFR   IFR   Intensive IFR   Very Intensive IFR
Visi :
Ceiling :
>= 8 km
>= 3000ft
5 to 8 km
1000 to 3000 ft
1500m to 5 km
500 to 1000 ft
800 to 1500m
200 to 500 ft
< 800m
< 200 ft
Symbols :   Thunderstorms  Fog  Heavy snow  Heavy precipitations  Wind > 20 kt






- Airport Elevation : 328 ft


KGFL - Floyd Bennett Memorial

CURRENT METAR :
  • 131653Z AUTO 17009KT 10SM FEW110 28/22 A3010 RMK AO2 SLP188 T02830222

EXPIRED METARs :
  • 131553Z AUTO 19011KT 10SM BKN032 28/22 A3011 RMK AO2 SLP194 T02780217
  • 131453Z AUTO 15008KT 10SM FEW025 FEW038 27/22 A3012 RMK AO2 SLP197 T02670217 58010
  • 131353Z AUTO 20006KT 10SM BKN090 26/21 A3013 RMK AO2 SLP201 T02610211
  • 131253Z AUTO 16003KT 10SM CLR 24/22 A3015 RMK AO2 SLP207 T02440217

TAF KGFL
Valid from the 13 at 12:00 until the 14 at 12:00 UTC


131147Z 1312/1412 VRB03KT 6SM BR FEW005 SCT080
TEMPO 1312/1313 BKN002
FM131300 18004KT P6SM SCT050
FM132000 26006KT P6SM SCT050
FM140200 VRB03KT P6SM FEW050
FM140500 00000KT 6SM BR SCT002
KZBW FIR / North America



MET'MAP, your aeronautical weather chart ! - Copyright ORBIFLY December 2007 - Disclaimer

ORBIFLY MET'MAP TEAM :

Programming & Development : Alexandra Zaïnal
Original concept : Baudouin d'Aumeries
Technical & hardware support : Manuel Goepfert
Assistance : Marc-Olivier Méhu




SOURCES & CREDITS :

   NOAA